createdAt,value
2023-03-04T07:18:47.746Z,99160.47
2023-03-04T07:21:17.417Z,99168.44
2023-03-04T07:23:45.291Z,99169.66
2023-03-04T07:26:13.127Z,99167.47
2023-03-04T07:28:42.766Z,99176.41
2023-03-04T07:31:32.128Z,99166.97
2023-03-04T07:34:06.758Z,99188.16
2023-03-04T07:36:37.005Z,99179.06
2023-03-04T07:39:05.855Z,99177.47
2023-03-04T07:41:36.305Z,99187.59
2023-03-04T07:44:07.040Z,99183.50
2023-03-04T07:46:34.858Z,99181.47
2023-03-04T07:49:02.209Z,99175.59
2023-03-04T07:51:29.745Z,99180.91
2023-03-04T07:54:01.048Z,99174.19
2023-03-04T07:56:33.957Z,99192.66
2023-03-04T07:59:02.215Z,99191.13
2023-03-04T08:01:37.913Z,99188.03
2023-03-04T08:04:07.983Z,99185.09
2023-03-04T08:06:35.984Z,99190.00
2023-03-04T08:09:07.708Z,99184.41
2023-03-04T08:11:38.434Z,99182.00
2023-03-04T08:14:06.321Z,99187.16
2023-03-04T08:16:33.768Z,99191.09
2023-03-04T08:19:04.180Z,99184.84
2023-03-04T08:21:32.607Z,99194.31
2023-03-04T08:24:07.863Z,99195.41
2023-03-04T08:26:46.757Z,99192.19
2023-03-04T08:29:24.767Z,99192.50
2023-03-04T08:31:54.396Z,99190.53
2023-03-04T08:34:27.407Z,99202.56
2023-03-04T08:36:55.034Z,99200.19
2023-03-04T08:39:22.476Z,99198.00
2023-03-04T08:41:50.308Z,99197.28
2023-03-04T08:44:17.676Z,99195.72
2023-03-04T08:46:45.011Z,99202.63
2023-03-04T08:49:14.445Z,99195.97
2023-03-04T08:51:41.829Z,99192.97
2023-03-04T08:54:09.149Z,99199.44
2023-03-04T08:56:36.450Z,99198.28
2023-03-04T08:59:04.109Z,99196.94
2023-03-04T09:01:31.517Z,99186.75
2023-03-04T09:03:58.916Z,99196.69
2023-03-04T09:06:26.290Z,99191.63
2023-03-04T09:08:53.623Z,99194.41
2023-03-04T09:11:21.024Z,99198.56
2023-03-04T09:13:48.447Z,99200.81
2023-03-04T09:16:16.876Z,99190.63
2023-03-04T09:18:44.367Z,99192.03
2023-03-04T09:21:12.210Z,99194.03
2023-03-04T09:23:40.973Z,99187.00
2023-03-04T09:26:26.858Z,99192.25
2023-03-04T09:28:59.636Z,99184.94
2023-03-04T09:31:30.078Z,99192.31
2023-03-04T09:33:59.484Z,99196.91
2023-03-04T09:36:26.853Z,99203.47
2023-03-04T09:38:54.198Z,99204.25
2023-03-04T09:41:37.619Z,99193.56
2023-03-04T09:44:43.218Z,99190.59
2023-03-04T09:47:17.612Z,99198.84
2023-03-04T09:50:01.267Z,99203.47
2023-03-04T09:53:21.303Z,99203.00
2023-03-04T09:55:53.000Z,99195.97
2023-03-04T09:59:00.207Z,99191.28
2023-03-04T10:01:42.617Z,99187.50
2023-03-04T10:04:50.964Z,99192.78
2023-03-04T10:07:33.416Z,99180.13
2023-03-04T10:10:10.642Z,99180.28
2023-03-04T10:12:42.814Z,99185.84
2023-03-04T10:15:46.202Z,99180.13
2023-03-04T10:18:48.370Z,99198.97
2023-03-04T10:21:36.261Z,99185.38
2023-03-04T10:24:18.789Z,99186.66
2023-03-04T10:27:01.531Z,99182.66
2023-03-04T10:29:32.637Z,99177.03
2023-03-04T10:32:00.484Z,99176.53
2023-03-04T10:34:28.169Z,99177.94
2023-03-04T10:37:07.536Z,99173.22
2023-03-04T10:39:46.291Z,99176.09
2023-03-04T10:42:16.477Z,99171.63
2023-03-04T10:45:01.072Z,99166.72
2023-03-04T10:47:33.548Z,99166.81
2023-03-04T10:50:05.650Z,99172.47
2023-03-04T10:52:49.969Z,99163.97
2023-03-04T10:55:28.410Z,99144.78
2023-03-04T10:58:13.521Z,99165.22
2023-03-04T11:00:41.247Z,99164.16
2023-03-04T11:03:31.922Z,99156.94
2023-03-04T11:06:13.367Z,99161.94
2023-03-04T11:08:42.583Z,99167.78
2023-03-04T11:11:42.950Z,99158.63
2023-03-04T11:14:34.679Z,99158.69
2023-03-04T11:17:45.355Z,99151.59
2023-03-04T11:20:48.278Z,99154.78
2023-03-04T11:23:39.517Z,99138.25
2023-03-04T11:26:19.522Z,99145.28
2023-03-04T11:29:31.621Z,99148.06
2023-03-04T11:32:21.325Z,99137.97
2023-03-04T11:35:25.344Z,99135.63
2023-03-04T11:38:37.723Z,99130.34
2023-03-04T11:41:19.191Z,99128.69
2023-03-04T11:43:47.720Z,99123.97
2023-03-04T11:47:22.837Z,99121.09
2023-03-04T11:50:29.397Z,99116.78
2023-03-04T11:53:34.086Z,99115.31
2023-03-04T11:56:35.258Z,99110.25
2023-03-04T11:59:54.398Z,99103.84
2023-03-04T12:02:46.974Z,99098.34
2023-03-04T12:06:06.244Z,99093.81
2023-03-04T12:09:21.726Z,99087.03
2023-03-04T12:12:33.599Z,99080.72
2023-03-04T12:15:51.418Z,99076.38
2023-03-04T12:18:55.838Z,99069.13
2023-03-04T12:22:23.316Z,99064.66
2023-03-04T12:25:53.728Z,99061.63
2023-03-04T12:29:43.116Z,99059.81
2023-03-04T12:33:02.576Z,99052.91
2023-03-04T12:35:58.795Z,99050.50
2023-03-04T12:38:53.599Z,99045.28
2023-03-04T12:42:23.243Z,99049.16
2023-03-04T12:45:43.857Z,99035.59
2023-03-04T12:48:50.242Z,99039.09
2023-03-04T12:52:18.117Z,99033.97
2023-03-04T12:54:58.184Z,99020.72
2023-03-04T12:57:31.636Z,99029.00
2023-03-04T13:00:13.300Z,99022.88
2023-03-04T13:03:09.299Z,99008.97
2023-03-04T13:06:13.889Z,98999.75
2023-03-04T13:09:24.075Z,99007.81
2023-03-04T13:12:24.677Z,99012.88
2023-03-04T13:15:10.221Z,99009.81
2023-03-04T13:18:01.546Z,98993.72
2023-03-04T13:20:41.884Z,98993.34
2023-03-04T13:23:14.964Z,98995.56
2023-03-04T13:26:32.911Z,98989.09
2023-03-04T13:29:18.592Z,98987.56
2023-03-04T13:32:12.671Z,98981.84
2023-03-04T13:34:57.934Z,98981.59
2023-03-04T13:37:37.029Z,98977.06
2023-03-04T13:40:23.433Z,98970.22
2023-03-04T13:42:51.383Z,98976.91
2023-03-04T13:45:37.389Z,98963.91
2023-03-04T13:48:33.146Z,98970.00
2023-03-04T13:51:00.731Z,98970.31
2023-03-04T13:54:08.092Z,98967.94
2023-03-04T13:56:40.668Z,98964.41
2023-03-04T13:59:07.745Z,98968.88
2023-03-04T14:01:43.041Z,98968.50
2023-03-04T14:04:56.292Z,98962.44
2023-03-04T14:07:36.770Z,98956.22
2023-03-04T14:10:12.333Z,98954.94
2023-03-04T14:12:58.856Z,98949.25
2023-03-04T14:15:32.108Z,98944.81
2023-03-04T14:18:04.730Z,98946.00
2023-03-04T14:20:39.600Z,98948.69
2023-03-04T14:23:42.527Z,98929.78
2023-03-04T14:26:18.056Z,98936.94
2023-03-04T14:28:52.684Z,98923.00
2023-03-04T14:31:25.105Z,98925.00
2023-03-04T14:33:59.848Z,98911.53
2023-03-04T14:36:29.581Z,98925.75
2023-03-04T14:39:03.260Z,98908.53
2023-03-04T14:41:39.413Z,98914.72
2023-03-04T14:44:40.508Z,98902.97
2023-03-04T14:47:45.350Z,98899.66
2023-03-04T14:50:20.178Z,98911.38
2023-03-04T14:53:26.119Z,98899.84
2023-03-04T14:56:10.575Z,98900.69
2023-03-04T14:58:53.432Z,98902.50
2023-03-04T15:01:32.414Z,98896.66
2023-03-04T15:04:05.867Z,98902.84
2023-03-04T15:06:39.222Z,98897.38
2023-03-04T15:09:25.409Z,98894.78
2023-03-04T15:12:08.299Z,98892.91
2023-03-04T15:15:24.784Z,98891.97
2023-03-04T15:18:22.990Z,98898.53
2023-03-04T15:21:20.203Z,98896.78
2023-03-04T15:23:47.964Z,98890.59
2023-03-04T15:26:15.394Z,98893.66
2023-03-04T15:28:43.410Z,98892.69
2023-03-04T15:31:24.158Z,98888.81
2023-03-04T15:33:52.533Z,98898.00
2023-03-04T15:36:23.992Z,98885.25
2023-03-04T15:38:53.569Z,98879.59
2023-03-04T15:41:28.033Z,98888.25
2023-03-04T15:43:55.578Z,98885.69
2023-03-04T15:46:23.107Z,98886.13
2023-03-04T15:48:50.818Z,98898.53
2023-03-04T15:51:23.151Z,98883.56
2023-03-04T15:53:57.600Z,98885.78
2023-03-04T15:56:31.773Z,98896.50
2023-03-04T15:59:16.579Z,98888.72
2023-03-04T16:01:44.147Z,98892.47
2023-03-04T16:04:17.647Z,98887.81
2023-03-04T16:06:50.385Z,98887.47
2023-03-04T16:09:21.079Z,98885.81
2023-03-04T16:11:48.573Z,98881.75
2023-03-04T16:14:17.084Z,98883.78
2023-03-04T16:16:46.487Z,98883.00
2023-03-04T16:19:13.801Z,98883.22
2023-03-04T16:21:41.580Z,98879.34
2023-03-04T16:24:19.933Z,98871.16
2023-03-04T16:26:48.425Z,98871.09
2023-03-04T16:29:16.854Z,98872.34
2023-03-04T16:31:44.363Z,98870.97
2023-03-04T16:34:11.999Z,98872.13
2023-03-04T16:36:39.513Z,98867.78
2023-03-04T16:39:22.763Z,98870.97
2023-03-04T16:41:51.625Z,98873.41
2023-03-04T16:44:19.144Z,98858.91
2023-03-04T16:46:46.532Z,98863.00
2023-03-04T16:49:13.859Z,98869.84
2023-03-04T16:51:50.239Z,98874.03
2023-03-04T16:54:31.814Z,98872.09
2023-03-04T16:57:00.208Z,98876.94
2023-03-04T16:59:29.235Z,98874.16
2023-03-04T17:01:57.174Z,98873.91
2023-03-04T17:04:24.863Z,98888.91
2023-03-04T17:06:52.385Z,98882.06
2023-03-04T17:09:19.745Z,98887.50
2023-03-04T17:11:47.322Z,98882.66
2023-03-04T17:14:14.637Z,98880.16
2023-03-04T17:16:42.719Z,98892.25
2023-03-04T17:19:10.026Z,98895.59
2023-03-04T17:21:37.303Z,98906.94
2023-03-04T17:24:04.856Z,98906.00
2023-03-04T17:26:32.648Z,98912.75
2023-03-04T17:28:59.974Z,98911.34
2023-03-04T17:31:27.312Z,98913.19
2023-03-04T17:33:54.611Z,98922.81
2023-03-04T17:36:22.118Z,98920.03
2023-03-04T17:38:51.928Z,98923.50
2023-03-04T17:41:19.697Z,98920.06
2023-03-04T17:43:51.766Z,98926.25
2023-03-04T17:46:25.541Z,98931.06
2023-03-04T17:48:57.378Z,98924.25
2023-03-04T17:51:38.694Z,98927.03
2023-03-04T17:54:08.622Z,98930.72
2023-03-04T17:56:39.897Z,98934.81
2023-03-04T17:59:13.776Z,98936.63
2023-03-04T18:01:41.680Z,98933.69
2023-03-04T18:04:09.076Z,98938.94
2023-03-04T18:06:36.407Z,98942.25
2023-03-04T18:09:05.636Z,98941.91
2023-03-04T18:11:38.699Z,98938.81
2023-03-04T18:14:06.521Z,98941.56
2023-03-04T18:16:34.764Z,98935.09
2023-03-04T18:19:02.938Z,98937.03
2023-03-04T18:21:30.785Z,98937.56
2023-03-04T18:23:58.640Z,98943.13
2023-03-04T18:26:27.177Z,98952.47
2023-03-04T18:28:56.850Z,98946.59
2023-03-04T18:31:31.636Z,98950.00
2023-03-04T18:34:02.624Z,98948.00
2023-03-04T18:36:30.682Z,98959.78
2023-03-04T18:38:59.536Z,98961.72
2023-03-04T18:41:27.866Z,98963.69
2023-03-04T18:43:55.696Z,98970.47
2023-03-04T18:46:46.936Z,98954.88
2023-03-04T18:49:15.582Z,98965.00
2023-03-04T18:51:42.987Z,98965.94
2023-03-04T18:54:10.514Z,98964.50
2023-03-04T18:56:58.660Z,98968.38
2023-03-04T19:00:02.471Z,98961.56
2023-03-04T19:02:52.671Z,98971.25
2023-03-04T19:05:30.019Z,98965.31
2023-03-04T19:07:57.450Z,98969.66
2023-03-04T19:10:25.813Z,98963.69
2023-03-04T19:12:53.158Z,98974.50
2023-03-04T19:15:20.526Z,98972.56
2023-03-04T19:17:47.870Z,98979.31
2023-03-04T19:20:16.240Z,98979.97
2023-03-04T19:22:44.479Z,98988.75
2023-03-04T19:25:12.605Z,98989.09
2023-03-04T19:27:40.001Z,98984.84
2023-03-04T19:30:10.128Z,98985.00
2023-03-04T19:32:37.647Z,98992.25
2023-03-04T19:35:05.617Z,98967.28
2023-03-04T19:37:33.091Z,98993.72
2023-03-04T19:40:00.362Z,98990.22
2023-03-04T19:42:27.804Z,98993.19
2023-03-04T19:44:55.369Z,98987.44
2023-03-04T19:47:22.700Z,98989.97
2023-03-04T19:49:49.991Z,98993.66
2023-03-04T19:52:17.318Z,98991.91
2023-03-04T19:54:44.595Z,98991.59
2023-03-04T19:57:11.922Z,98973.28
2023-03-04T19:59:39.266Z,98988.13
2023-03-04T20:02:06.570Z,98978.25
2023-03-04T20:04:34.040Z,98985.22
2023-03-04T20:07:01.384Z,98983.88
2023-03-04T20:09:28.695Z,98985.03
2023-03-04T20:11:59.083Z,98979.44
2023-03-04T20:14:33.467Z,98988.09
2023-03-04T20:17:06.834Z,98991.59
2023-03-04T20:19:35.250Z,98990.63
2023-03-04T20:22:05.676Z,98994.78
2023-03-04T20:24:33.139Z,98995.19
2023-03-04T20:27:00.862Z,98986.56
2023-03-04T20:29:28.946Z,98988.72
2023-03-04T20:31:56.429Z,98996.03
2023-03-04T20:34:25.444Z,99002.50
2023-03-04T20:36:52.834Z,98994.88
2023-03-04T20:39:29.237Z,98993.78
2023-03-04T20:41:58.912Z,98994.50
2023-03-04T20:44:27.044Z,98991.56
2023-03-04T20:46:54.398Z,98982.81
2023-03-04T20:49:28.668Z,98990.03
2023-03-04T20:52:09.091Z,98991.44
2023-03-04T20:54:39.042Z,98988.84
2023-03-04T20:57:08.069Z,98986.97
2023-03-04T20:59:38.977Z,98999.94
2023-03-04T21:02:14.876Z,98997.63
2023-03-04T21:04:43.882Z,98998.38
2023-03-04T21:07:12.148Z,98993.31
2023-03-04T21:09:39.463Z,98988.91
2023-03-04T21:12:07.748Z,98998.09
2023-03-04T21:14:35.106Z,98987.47
2023-03-04T21:17:05.048Z,98987.97
2023-03-04T21:19:43.488Z,98988.22
2023-03-04T21:22:19.009Z,98987.66
2023-03-04T21:24:47.920Z,98998.53
2023-03-04T21:27:16.937Z,98997.09
2023-03-04T21:29:44.703Z,98981.63
2023-03-04T21:32:25.582Z,98991.69
2023-03-04T21:34:55.198Z,98987.50
2023-03-04T21:37:25.602Z,98981.50
2023-03-04T21:39:54.850Z,98977.53
2023-03-04T21:42:22.519Z,98979.44
2023-03-04T21:44:51.484Z,98983.38
2023-03-04T21:47:22.214Z,98979.00
2023-03-04T21:49:50.278Z,98973.47
2023-03-04T21:52:22.614Z,98982.16
2023-03-04T21:54:50.156Z,98980.25
2023-03-04T21:57:19.206Z,98980.03
2023-03-04T21:59:46.794Z,98983.78
2023-03-04T22:02:23.949Z,98984.75
2023-03-04T22:04:51.329Z,98966.03
2023-03-04T22:07:18.707Z,98983.53
2023-03-04T22:09:47.066Z,98969.13
2023-03-04T22:12:15.840Z,98975.47
2023-03-04T22:14:43.776Z,98969.59
2023-03-04T22:17:11.149Z,98974.06
